createdAt,value
2018-01-28T00:02:20.851Z,78.63
2018-01-28T00:04:49.147Z,78.26
2018-01-28T00:07:17.455Z,78.04
2018-01-28T00:09:45.742Z,77.81
2018-01-28T00:12:14.016Z,77.73
2018-01-28T00:14:42.306Z,77.48
2018-01-28T00:17:10.566Z,77.16
2018-01-28T00:19:38.862Z,77.37
2018-01-28T00:22:07.129Z,77.19
2018-01-28T00:24:35.436Z,77.10
2018-01-28T00:27:03.701Z,77.18
2018-01-28T00:29:32.990Z,77.53
2018-01-28T00:32:01.311Z,77.86
2018-01-28T00:34:29.620Z,77.60
2018-01-28T00:36:57.974Z,77.52
2018-01-28T00:39:26.217Z,77.34
2018-01-28T00:41:54.590Z,77.19
2018-01-28T00:44:22.845Z,76.97
2018-01-28T00:46:51.136Z,76.84
2018-01-28T00:49:19.391Z,76.61
2018-01-28T00:51:47.756Z,76.48
2018-01-28T00:54:16.031Z,76.20
2018-01-28T00:56:44.279Z,76.41
2018-01-28T00:59:12.926Z,76.44
2018-01-28T01:01:41.168Z,76.72
2018-01-28T01:04:09.472Z,76.80
2018-01-28T01:06:37.733Z,76.93
2018-01-28T01:09:06.075Z,77.15
2018-01-28T01:11:34.353Z,77.19
2018-01-28T01:14:02.708Z,77.25
2018-01-28T01:16:31.004Z,77.73
2018-01-28T01:18:59.280Z,77.73
2018-01-28T01:21:27.643Z,77.66
2018-01-28T01:23:55.936Z,77.80
2018-01-28T01:26:24.931Z,77.73
2018-01-28T01:28:53.196Z,77.40
2018-01-28T01:31:21.519Z,77.59
2018-01-28T01:33:49.792Z,77.58
2018-01-28T01:36:18.066Z,77.91
2018-01-28T01:38:46.416Z,77.91
2018-01-28T01:41:14.715Z,77.72
2018-01-28T01:43:43.004Z,77.89
2018-01-28T01:46:11.275Z,77.81
2018-01-28T01:48:39.575Z,77.74
2018-01-28T01:51:07.851Z,77.65
2018-01-28T01:53:36.153Z,77.45
2018-01-28T01:56:04.399Z,77.18
2018-01-28T01:58:33.272Z,77.07
2018-01-28T02:01:01.602Z,77.00
2018-01-28T02:03:29.918Z,76.73
2018-01-28T02:05:58.204Z,76.52
2018-01-28T02:08:27.294Z,76.35
2018-01-28T02:10:55.587Z,76.37
2018-01-28T02:13:24.530Z,75.71
2018-01-28T02:15:52.835Z,75.85
2018-01-28T02:18:21.111Z,76.03
2018-01-28T02:20:49.399Z,75.93
2018-01-28T02:23:17.673Z,76.26
2018-01-28T02:25:45.960Z,76.44
2018-01-28T02:28:14.248Z,76.04
2018-01-28T02:30:42.503Z,75.89
2018-01-28T02:33:10.779Z,75.74
2018-01-28T02:35:39.051Z,75.70
2018-01-28T02:38:07.350Z,75.92
2018-01-28T02:40:35.611Z,75.83
2018-01-28T02:43:03.890Z,76.00
2018-01-28T02:45:32.159Z,76.30
2018-01-28T02:48:00.439Z,76.46
2018-01-28T02:50:28.707Z,76.51
2018-01-28T02:52:57.007Z,76.38
2018-01-28T02:55:25.259Z,76.25
2018-01-28T02:57:53.534Z,75.75
2018-01-28T03:00:21.831Z,75.80
2018-01-28T03:02:50.083Z,75.69
2018-01-28T03:05:18.363Z,75.75
2018-01-28T03:07:46.643Z,75.57
2018-01-28T03:10:14.918Z,75.59
2018-01-28T03:12:43.190Z,75.37
2018-01-28T03:15:11.470Z,75.56
2018-01-28T03:17:39.755Z,75.49
2018-01-28T03:20:08.023Z,75.43
2018-01-28T03:22:36.339Z,75.29
2018-01-28T03:25:04.605Z,75.14
2018-01-28T03:27:32.938Z,75.58
2018-01-28T03:30:01.187Z,75.36
2018-01-28T03:32:29.489Z,75.23
2018-01-28T03:34:57.750Z,75.41
2018-01-28T03:37:26.050Z,75.46
2018-01-28T03:39:54.323Z,75.38
2018-01-28T03:42:22.670Z,75.35
2018-01-28T03:44:50.954Z,75.43
2018-01-28T03:47:19.223Z,75.47
2018-01-28T03:49:47.525Z,75.26
2018-01-28T03:52:15.784Z,75.04
2018-01-28T03:54:44.130Z,75.02
2018-01-28T03:57:12.383Z,75.47
2018-01-28T03:59:40.672Z,75.54
2018-01-28T04:02:08.915Z,75.32
2018-01-28T04:04:37.216Z,75.30
2018-01-28T04:07:06.388Z,75.44
2018-01-28T04:09:34.684Z,75.48
2018-01-28T04:12:02.955Z,75.26
2018-01-28T04:14:31.214Z,75.12
2018-01-28T04:17:00.106Z,74.96
2018-01-28T04:19:28.362Z,75.05
2018-01-28T04:21:56.758Z,74.96
2018-01-28T04:24:25.010Z,74.93
2018-01-28T04:26:53.319Z,74.73
2018-01-28T04:29:21.592Z,74.60
2018-01-28T04:31:49.878Z,74.29
2018-01-28T04:34:18.139Z,74.41
2018-01-28T04:36:46.423Z,74.48
2018-01-28T04:39:14.715Z,74.78
2018-01-28T04:41:42.966Z,74.93
2018-01-28T04:44:11.245Z,75.18
2018-01-28T04:46:39.519Z,75.63
2018-01-28T04:49:07.789Z,76.03
2018-01-28T04:51:36.187Z,76.01
2018-01-28T04:54:04.474Z,76.07
2018-01-28T04:56:32.928Z,76.32
2018-01-28T04:59:01.203Z,76.41
2018-01-28T05:01:29.482Z,76.58
2018-01-28T05:03:57.762Z,76.44
2018-01-28T05:06:26.082Z,76.59
2018-01-28T05:08:54.338Z,76.54
2018-01-28T05:11:23.419Z,76.62
2018-01-28T05:13:51.691Z,76.78
2018-01-28T05:16:20.381Z,76.69
2018-01-28T05:18:48.610Z,76.69
2018-01-28T05:21:18.173Z,77.25
2018-01-28T05:23:46.434Z,77.36
2018-01-28T05:26:15.674Z,77.41
2018-01-28T05:28:43.975Z,77.45
2018-01-28T05:31:12.723Z,77.77
2018-01-28T05:33:41.018Z,77.74
2018-01-28T05:36:09.291Z,77.63
2018-01-28T05:38:37.571Z,77.55
2018-01-28T05:41:05.892Z,77.59
2018-01-28T05:43:34.176Z,77.81
2018-01-28T05:46:02.477Z,78.13
2018-01-28T05:48:30.748Z,78.84
2018-01-28T05:50:59.897Z,79.02
2018-01-28T05:53:28.249Z,79.07
2018-01-28T05:55:56.495Z,79.39
2018-01-28T05:58:24.744Z,79.69
2018-01-28T06:00:53.024Z,79.73
2018-01-28T06:03:21.307Z,79.92
2018-01-28T06:05:49.611Z,80.14
2018-01-28T06:08:17.863Z,80.03
2018-01-28T06:10:46.175Z,80.00
2018-01-28T06:13:14.415Z,80.31
2018-01-28T06:15:42.743Z,80.32
2018-01-28T06:18:11.993Z,80.48
2018-01-28T06:20:40.226Z,80.70
2018-01-28T06:23:08.532Z,80.98
2018-01-28T06:25:36.827Z,80.87
2018-01-28T06:28:05.117Z,81.03
2018-01-28T06:30:33.368Z,81.11
2018-01-28T06:33:02.582Z,80.97
2018-01-28T06:35:30.838Z,80.97
2018-01-28T06:37:59.145Z,81.07
2018-01-28T06:40:27.391Z,81.05
2018-01-28T06:42:55.685Z,80.94
2018-01-28T06:45:24.281Z,80.98
2018-01-28T06:47:52.601Z,80.86
2018-01-28T06:50:21.116Z,80.99
2018-01-28T06:52:49.394Z,80.98
2018-01-28T06:55:17.694Z,81.17
2018-01-28T06:57:45.942Z,81.30
2018-01-28T07:00:14.227Z,81.32
2018-01-28T07:02:42.483Z,81.04
2018-01-28T07:05:12.404Z,81.01
2018-01-28T07:07:40.818Z,81.16
2018-01-28T07:10:33.370Z,80.90
2018-01-28T07:13:03.040Z,80.77
2018-01-28T07:15:31.307Z,80.93
2018-01-28T07:18:04.633Z,81.05
2018-01-28T07:20:32.900Z,80.96
2018-01-28T07:23:01.182Z,81.06
2018-01-28T07:25:29.431Z,81.31
2018-01-28T07:27:57.707Z,81.07
2018-01-28T07:30:25.984Z,81.10
2018-01-28T07:32:54.266Z,81.21
2018-01-28T07:35:22.552Z,81.22
2018-01-28T07:37:50.821Z,81.57
2018-01-28T07:40:19.100Z,81.71
2018-01-28T07:42:47.410Z,81.95
2018-01-28T07:45:15.666Z,81.89
2018-01-28T07:47:43.960Z,82.00
2018-01-28T07:50:12.201Z,82.61
2018-01-28T07:52:40.466Z,82.73
2018-01-28T07:55:08.751Z,82.56
2018-01-28T07:57:37.019Z,82.53
2018-01-28T08:00:05.303Z,82.59
2018-01-28T08:02:33.571Z,82.52
2018-01-28T08:05:01.850Z,82.65
2018-01-28T08:07:30.122Z,82.40
2018-01-28T08:10:19.133Z,82.42
2018-01-28T08:12:48.194Z,82.12
2018-01-28T08:15:16.477Z,81.89
2018-01-28T08:17:44.751Z,81.94
2018-01-28T08:20:13.080Z,81.61
2018-01-28T08:22:41.350Z,81.40
2018-01-28T08:25:09.652Z,81.57
2018-01-28T08:27:38.256Z,81.63
2018-01-28T08:30:06.521Z,81.73
2018-01-28T08:32:34.926Z,81.64
2018-01-28T08:35:03.189Z,81.63
2018-01-28T08:37:31.476Z,81.71
2018-01-28T08:39:59.733Z,81.48
2018-01-28T08:42:28.023Z,81.39
2018-01-28T08:44:56.279Z,81.16
2018-01-28T08:47:24.584Z,81.14
2018-01-28T08:49:52.858Z,81.24
2018-01-28T08:52:21.150Z,81.18
2018-01-28T08:54:49.387Z,81.30
2018-01-28T08:57:17.663Z,81.27
2018-01-28T08:59:45.942Z,81.42
2018-01-28T09:02:14.208Z,81.34
2018-01-28T09:04:42.595Z,81.92
2018-01-28T09:07:10.870Z,82.20
2018-01-28T09:09:39.167Z,82.24
2018-01-28T09:12:07.416Z,82.50
2018-01-28T09:14:35.699Z,82.62
2018-01-28T09:17:03.973Z,82.60
2018-01-28T09:19:32.251Z,82.97
2018-01-28T09:22:01.491Z,82.73
2018-01-28T09:24:29.763Z,82.77
2018-01-28T09:26:58.058Z,83.17
2018-01-28T09:29:26.344Z,83.35
2018-01-28T09:31:54.685Z,83.50
2018-01-28T09:34:23.660Z,83.45
2018-01-28T09:36:52.002Z,83.58
2018-01-28T09:39:20.326Z,83.36
2018-01-28T09:41:48.590Z,82.97
2018-01-28T09:44:16.923Z,82.89
2018-01-28T09:46:45.226Z,82.65
2018-01-28T09:49:13.521Z,82.72
2018-01-28T09:51:41.797Z,82.88
2018-01-28T09:54:10.076Z,82.87
2018-01-28T09:56:38.335Z,82.44
2018-01-28T09:59:06.655Z,82.45
2018-01-28T10:01:34.919Z,82.73
2018-01-28T10:04:03.229Z,82.88
2018-01-28T10:06:31.479Z,83.06
2018-01-28T10:08:59.781Z,83.46
2018-01-28T10:11:28.020Z,83.35
2018-01-28T10:13:56.579Z,83.95
2018-01-28T10:16:24.869Z,83.88
2018-01-28T10:18:53.130Z,83.63
2018-01-28T10:21:21.411Z,83.65
2018-01-28T10:23:49.680Z,84.19
2018-01-28T10:26:17.963Z,84.02
2018-01-28T10:28:46.233Z,84.18
2018-01-28T10:31:14.514Z,84.03
2018-01-28T10:33:42.788Z,83.87
2018-01-28T10:36:11.071Z,83.81
2018-01-28T10:38:39.332Z,83.95
2018-01-28T10:41:07.638Z,83.69
2018-01-28T10:43:35.907Z,83.62
2018-01-28T10:46:04.203Z,83.63
2018-01-28T10:48:32.467Z,83.57
2018-01-28T10:51:00.743Z,83.29
2018-01-28T10:53:28.995Z,83.23
2018-01-28T10:55:57.295Z,83.06
2018-01-28T10:58:25.548Z,82.79
2018-01-28T11:00:53.844Z,82.81
2018-01-28T11:03:22.137Z,82.93
2018-01-28T11:05:50.389Z,82.96
2018-01-28T11:08:18.662Z,82.71
2018-01-28T11:10:47.251Z,82.47
2018-01-28T11:13:15.539Z,82.24
2018-01-28T11:15:43.798Z,81.81
2018-01-28T11:18:12.086Z,81.49
2018-01-28T11:20:40.379Z,81.08
2018-01-28T11:23:09.430Z,81.03
2018-01-28T11:25:37.706Z,81.00
2018-01-28T11:28:05.960Z,81.09
2018-01-28T11:30:34.257Z,81.38
2018-01-28T11:33:02.521Z,81.46
2018-01-28T11:35:30.825Z,81.47
2018-01-28T11:37:59.088Z,81.83
2018-01-28T11:40:27.384Z,81.81
2018-01-28T11:42:55.642Z,81.65
2018-01-28T11:45:24.543Z,81.44
2018-01-28T11:47:52.804Z,81.02
2018-01-28T11:50:21.080Z,80.93
2018-01-28T11:52:49.363Z,81.11
2018-01-28T11:55:19.472Z,81.06
2018-01-28T11:57:47.741Z,80.86
2018-01-28T12:00:16.060Z,80.85
2018-01-28T12:02:44.935Z,80.88
2018-01-28T12:05:13.344Z,80.62
2018-01-28T12:07:42.491Z,80.19
2018-01-28T12:10:10.826Z,80.26
2018-01-28T12:12:39.368Z,80.59
2018-01-28T12:15:07.733Z,80.63
2018-01-28T12:17:36.082Z,80.64
2018-01-28T12:20:04.563Z,80.90
2018-01-28T12:22:32.875Z,81.26
2018-01-28T12:25:01.192Z,81.21
2018-01-28T12:27:29.460Z,81.31
2018-01-28T12:29:58.740Z,81.17
2018-01-28T12:32:27.151Z,81.37
2018-01-28T12:34:56.323Z,81.32
2018-01-28T12:37:24.579Z,81.35
2018-01-28T12:39:52.879Z,81.35
2018-01-28T12:42:21.160Z,81.14
2018-01-28T12:44:49.514Z,81.08
2018-01-28T12:47:17.791Z,80.91
2018-01-28T12:49:46.063Z,80.69
2018-01-28T12:52:14.362Z,80.78
2018-01-28T12:54:42.614Z,80.62
2018-01-28T12:57:11.450Z,80.57
2018-01-28T12:59:39.718Z,80.97
2018-01-28T13:02:08.051Z,80.90
2018-01-28T13:04:36.304Z,80.68
2018-01-28T13:07:04.620Z,80.91
2018-01-28T13:09:32.880Z,80.80
2018-01-28T13:12:01.162Z,80.91
2018-01-28T13:14:29.460Z,81.06
2018-01-28T13:16:57.714Z,81.08
2018-01-28T13:19:26.042Z,80.95
2018-01-28T13:21:54.326Z,80.81
2018-01-28T13:24:22.593Z,81.14
2018-01-28T13:26:50.883Z,81.30
2018-01-28T13:29:19.165Z,81.59
2018-01-28T13:31:47.439Z,81.98
2018-01-28T13:34:15.715Z,82.06
2018-01-28T13:36:44.022Z,81.95
2018-01-28T13:39:12.297Z,82.54
2018-01-28T13:41:40.574Z,82.11
2018-01-28T13:44:10.085Z,82.10
2018-01-28T13:46:39.550Z,82.21
2018-01-28T13:49:07.819Z,82.63
2018-01-28T13:51:36.125Z,82.68
2018-01-28T13:54:04.417Z,82.49
2018-01-28T13:56:32.771Z,82.41
2018-01-28T13:59:01.095Z,82.41
2018-01-28T14:01:29.552Z,82.65
2018-01-28T14:03:58.120Z,82.86
2018-01-28T14:06:26.389Z,82.56
2018-01-28T14:08:54.681Z,82.72
2018-01-28T14:11:22.963Z,82.71
2018-01-28T14:13:51.239Z,82.73
2018-01-28T14:16:20.436Z,82.92
2018-01-28T14:18:48.731Z,83.09
2018-01-28T14:21:18.371Z,83.17
2018-01-28T14:23:46.699Z,83.15
2018-01-28T14:26:15.002Z,82.75
2018-01-28T14:28:43.353Z,82.78
2018-01-28T14:31:11.972Z,82.98
2018-01-28T14:33:40.310Z,83.08
2018-01-28T14:36:08.650Z,83.12
2018-01-28T14:38:37.014Z,83.46
2018-01-28T14:41:05.301Z,83.61
2018-01-28T14:43:33.541Z,83.83
2018-01-28T14:46:01.896Z,83.97
2018-01-28T14:48:30.144Z,83.78
2018-01-28T14:50:58.448Z,83.94
2018-01-28T14:53:26.732Z,84.01
2018-01-28T14:55:55.012Z,84.07
2018-01-28T14:58:23.336Z,84.02
2018-01-28T15:00:51.592Z,83.92
2018-01-28T15:03:20.205Z,83.99
2018-01-28T15:05:48.768Z,83.94
2018-01-28T15:08:17.256Z,84.11
2018-01-28T15:10:46.832Z,84.16
2018-01-28T15:13:15.084Z,84.23
2018-01-28T15:15:43.383Z,84.26
2018-01-28T15:18:11.690Z,84.25
2018-01-28T15:20:39.934Z,84.19
2018-01-28T15:23:08.213Z,84.04
2018-01-28T15:25:36.503Z,84.00
2018-01-28T15:28:04.784Z,84.08
2018-01-28T15:30:33.102Z,84.31
2018-01-28T15:33:01.375Z,84.55
2018-01-28T15:35:29.710Z,84.30
2018-01-28T15:37:57.963Z,84.19
2018-01-28T15:40:26.351Z,84.26
2018-01-28T15:42:54.573Z,84.20
2018-01-28T15:45:22.863Z,84.04
2018-01-28T15:47:51.126Z,84.05
2018-01-28T15:50:19.420Z,84.33
2018-01-28T15:52:47.693Z,84.42
2018-01-28T15:55:15.962Z,84.24
2018-01-28T15:57:44.234Z,84.16
2018-01-28T16:00:12.494Z,83.95
2018-01-28T16:02:40.791Z,84.26
2018-01-28T16:05:09.038Z,83.88
2018-01-28T16:07:37.332Z,83.76
2018-01-28T16:10:05.612Z,83.73
2018-01-28T16:12:34.033Z,83.77
2018-01-28T16:15:02.279Z,83.76
2018-01-28T16:17:30.570Z,83.87
2018-01-28T16:19:58.838Z,83.78
2018-01-28T16:22:27.128Z,83.87
2018-01-28T16:24:55.388Z,84.02
2018-01-28T16:27:23.667Z,83.90
2018-01-28T16:29:51.964Z,83.79
2018-01-28T16:32:20.215Z,83.66
2018-01-28T16:34:48.486Z,83.57
2018-01-28T16:37:16.800Z,83.63
2018-01-28T16:39:45.094Z,83.59
2018-01-28T16:42:13.372Z,83.72
2018-01-28T16:44:42.245Z,83.74
2018-01-28T16:47:10.514Z,83.47
2018-01-28T16:49:38.893Z,83.22
2018-01-28T16:52:07.169Z,83.32
2018-01-28T16:54:35.444Z,83.13
2018-01-28T16:57:03.697Z,82.85
2018-01-28T16:59:31.984Z,82.61
2018-01-28T17:02:00.241Z,82.60
2018-01-28T17:04:28.538Z,82.88
2018-01-28T17:06:56.820Z,82.59
2018-01-28T17:09:25.068Z,82.46
2018-01-28T17:11:53.374Z,82.09
2018-01-28T17:14:21.664Z,81.93
2018-01-28T17:16:51.535Z,81.91
2018-01-28T17:19:19.787Z,81.78
2018-01-28T17:21:48.071Z,81.82
2018-01-28T17:24:16.347Z,81.67
2018-01-28T17:26:44.662Z,81.63
2018-01-28T17:29:12.923Z,81.63
2018-01-28T17:31:41.222Z,81.36
2018-01-28T17:34:09.485Z,81.11
2018-01-28T17:36:37.738Z,81.15
2018-01-28T17:39:06.023Z,81.31
2018-01-28T17:41:34.345Z,81.32
2018-01-28T17:44:03.340Z,81.24
2018-01-28T17:46:34.018Z,80.89
2018-01-28T17:49:02.271Z,80.69
2018-01-28T17:51:30.540Z,80.69
2018-01-28T17:53:58.880Z,80.89
2018-01-28T17:56:27.109Z,80.84
2018-01-28T17:58:56.479Z,80.84
2018-01-28T18:01:24.809Z,80.85
2018-01-28T18:06:28.272Z,80.89
2018-01-28T18:08:56.629Z,80.82
2018-01-28T18:11:25.039Z,80.78
2018-01-28T18:13:53.667Z,80.76
2018-01-28T18:16:22.021Z,80.86
2018-01-28T18:18:50.629Z,80.95
2018-01-28T18:21:18.938Z,81.23
2018-01-28T18:23:47.225Z,81.34
2018-01-28T18:26:15.580Z,81.43
2018-01-28T18:28:43.967Z,81.27
2018-01-28T18:31:12.308Z,81.39
2018-01-28T18:33:40.575Z,81.19
2018-01-28T18:36:08.914Z,81.23
2018-01-28T18:38:37.160Z,81.08
2018-01-28T18:41:05.526Z,81.10
2018-01-28T18:43:33.835Z,81.34
2018-01-28T18:46:02.402Z,81.29
2018-01-28T18:48:30.682Z,81.35
2018-01-28T18:50:58.963Z,81.18
2018-01-28T18:56:02.514Z,81.22
2018-01-28T18:58:31.245Z,81.41
2018-01-28T19:00:59.511Z,81.77
2018-01-28T19:03:27.815Z,82.01
2018-01-28T19:05:56.523Z,81.67
2018-01-28T19:08:24.874Z,81.47
2018-01-28T19:10:53.152Z,81.65
2018-01-28T19:13:21.424Z,81.85
2018-01-28T19:15:49.684Z,81.95
2018-01-28T19:18:17.969Z,81.86
2018-01-28T19:20:46.250Z,81.94
2018-01-28T19:23:14.531Z,81.89
2018-01-28T19:25:42.880Z,81.87
2018-01-28T19:28:11.161Z,81.75
2018-01-28T19:30:39.462Z,81.79
2018-01-28T19:33:07.746Z,81.89
2018-01-28T19:35:36.247Z,81.85
2018-01-28T19:38:04.685Z,81.65
2018-01-28T19:40:33.790Z,81.61
2018-01-28T19:43:02.082Z,81.60
2018-01-28T19:45:30.353Z,81.86
2018-01-28T19:47:58.668Z,81.98
2018-01-28T19:50:26.910Z,82.02
2018-01-28T19:52:56.166Z,82.06
2018-01-28T19:55:24.990Z,81.89
2018-01-28T19:57:53.493Z,81.92
2018-01-28T20:00:21.791Z,82.12
2018-01-28T20:02:50.904Z,82.28
2018-01-28T20:05:19.211Z,82.24
2018-01-28T20:07:47.539Z,82.58
2018-01-28T20:10:16.078Z,82.43
2018-01-28T20:12:45.277Z,82.39
2018-01-28T20:15:13.553Z,82.25
2018-01-28T20:17:41.884Z,82.26
2018-01-28T20:20:10.199Z,82.38
2018-01-28T20:22:38.493Z,82.32
2018-01-28T20:25:06.806Z,82.40
2018-01-28T20:27:35.076Z,82.22
2018-01-28T20:30:04.017Z,82.07
2018-01-28T20:32:32.275Z,82.05
2018-01-28T20:35:00.576Z,82.57
2018-01-28T20:37:28.970Z,82.94
2018-01-28T20:39:57.277Z,82.96
2018-01-28T20:42:25.555Z,82.95
2018-01-28T20:44:53.920Z,82.87
2018-01-28T20:47:22.188Z,82.86
2018-01-28T20:49:50.487Z,82.95
2018-01-28T20:52:18.822Z,83.06
2018-01-28T20:54:47.936Z,83.20
2018-01-28T20:57:16.679Z,83.39
2018-01-28T20:59:44.976Z,83.27
2018-01-28T21:02:13.247Z,83.53
2018-01-28T21:04:41.578Z,83.37
2018-01-28T21:07:09.860Z,83.17
2018-01-28T21:09:38.125Z,83.18
2018-01-28T21:12:06.418Z,83.24
2018-01-28T21:14:34.674Z,83.01
2018-01-28T21:17:02.956Z,83.11
2018-01-28T21:19:32.131Z,83.17
2018-01-28T21:22:00.459Z,83.41
2018-01-28T21:24:28.975Z,83.67
2018-01-28T21:26:57.231Z,83.71
2018-01-28T21:29:25.550Z,83.54
2018-01-28T21:31:54.635Z,83.26
2018-01-28T21:34:22.962Z,83.34
2018-01-28T21:36:51.484Z,83.56
2018-01-28T21:39:19.842Z,83.43
2018-01-28T21:41:48.087Z,83.36
2018-01-28T21:44:16.564Z,83.70
2018-01-28T21:46:44.921Z,83.62
2018-01-28T21:49:14.403Z,84.07
2018-01-28T21:51:42.779Z,84.00
2018-01-28T21:54:11.056Z,83.82
2018-01-28T21:56:39.570Z,83.64
2018-01-28T21:59:07.909Z,83.63
2018-01-28T22:01:36.240Z,83.76
2018-01-28T22:04:04.844Z,83.71
2018-01-28T22:06:33.116Z,84.02
2018-01-28T22:09:02.150Z,84.23
2018-01-28T22:11:30.423Z,84.15
2018-01-28T22:13:58.670Z,84.13
2018-01-28T22:16:26.969Z,84.10
2018-01-28T22:18:55.222Z,84.22
2018-01-28T22:21:23.900Z,84.00
2018-01-28T22:23:52.158Z,84.23
2018-01-28T22:26:20.444Z,84.23
2018-01-28T22:28:48.947Z,84.10
2018-01-28T22:31:17.224Z,84.13
2018-01-28T22:33:45.468Z,84.15
2018-01-28T22:36:13.767Z,84.22
2018-01-28T22:38:42.023Z,84.23
2018-01-28T22:41:10.317Z,84.15
2018-01-28T22:43:39.216Z,84.19
2018-01-28T22:46:07.538Z,84.46
2018-01-28T22:48:35.929Z,84.58
2018-01-28T22:51:05.130Z,84.99
2018-01-28T22:53:33.379Z,85.23
2018-01-28T22:56:01.772Z,85.00
2018-01-28T22:58:30.035Z,85.06
2018-01-28T23:00:58.301Z,84.96
2018-01-28T23:03:26.610Z,84.93
2018-01-28T23:05:54.852Z,84.81
2018-01-28T23:08:23.271Z,84.71
2018-01-28T23:10:52.197Z,84.71
2018-01-28T23:13:20.475Z,84.77
2018-01-28T23:15:48.789Z,84.83
2018-01-28T23:18:17.136Z,84.63
2018-01-28T23:20:45.512Z,85.05
2018-01-28T23:23:13.777Z,85.30
2018-01-28T23:25:42.062Z,85.36
2018-01-28T23:28:10.330Z,85.19
2018-01-28T23:30:38.617Z,84.92
2018-01-28T23:33:06.892Z,84.90
2018-01-28T23:35:35.204Z,85.03
2018-01-28T23:38:03.509Z,85.12
2018-01-28T23:40:31.807Z,85.12
2018-01-28T23:43:00.113Z,85.16
2018-01-28T23:45:28.388Z,85.29
2018-01-28T23:47:56.667Z,85.33
2018-01-28T23:50:24.954Z,85.58
2018-01-28T23:52:53.259Z,85.28
2018-01-28T23:55:21.542Z,84.91
2018-01-28T23:57:49.886Z,84.60
